sensor_id;sensor_type;location;lat;lon;timestamp;P1;durP1;ratioP1;P2;durP2;ratioP2
11490;SDS011;5802;52.832;4.758;2022-09-09T00:01:52;1.73;;;1.10;;
11490;SDS011;5802;52.832;4.758;2022-09-09T00:04:26;1.98;;;1.13;;
11490;SDS011;5802;52.832;4.758;2022-09-09T00:06:57;2.80;;;1.30;;
11490;SDS011;5802;52.832;4.758;2022-09-09T00:09:29;1.58;;;1.20;;
11490;SDS011;5802;52.832;4.758;2022-09-09T00:12:00;4.05;;;1.08;;
11490;SDS011;5802;52.832;4.758;2022-09-09T00:14:34;4.43;;;1.40;;
11490;SDS011;5802;52.832;4.758;2022-09-09T00:17:06;3.78;;;1.23;;
11490;SDS011;5802;52.832;4.758;2022-09-09T00:19:39;1.45;;;1.00;;
11490;SDS011;5802;52.832;4.758;2022-09-09T00:22:15;2.22;;;1.20;;
11490;SDS011;5802;52.832;4.758;2022-09-09T00:24:44;2.28;;;1.23;;
11490;SDS011;5802;52.832;4.758;2022-09-09T00:27:17;1.92;;;1.20;;
11490;SDS011;5802;52.832;4.758;2022-09-09T00:29:52;2.00;;;1.20;;
11490;SDS011;5802;52.832;4.758;2022-09-09T00:32:24;2.17;;;1.25;;
11490;SDS011;5802;52.832;4.758;2022-09-09T00:34:56;2.15;;;1.40;;
11490;SDS011;5802;52.832;4.758;2022-09-09T00:37:31;2.83;;;1.30;;
11490;SDS011;5802;52.832;4.758;2022-09-09T00:40:01;1.20;;;0.90;;
11490;SDS011;5802;52.832;4.758;2022-09-09T00:42:35;1.73;;;0.90;;
11490;SDS011;5802;52.832;4.758;2022-09-09T00:45:10;3.10;;;1.35;;
11490;SDS011;5802;52.832;4.758;2022-09-09T00:47:51;2.35;;;1.00;;
11490;SDS011;5802;52.832;4.758;2022-09-09T00:50:25;3.67;;;1.63;;
11490;SDS011;5802;52.832;4.758;2022-09-09T00:53:05;2.90;;;1.20;;
11490;SDS011;5802;52.832;4.758;2022-09-09T00:55:45;1.15;;;1.00;;
11490;SDS011;5802;52.832;4.758;2022-09-09T00:58:17;1.65;;;1.00;;
11490;SDS011;5802;52.832;4.758;2022-09-09T01:00:44;2.35;;;1.27;;
11490;SDS011;5802;52.832;4.758;2022-09-09T01:03:18;1.42;;;1.00;;
11490;SDS011;5802;52.832;4.758;2022-09-09T01:06:01;4.20;;;1.30;;
11490;SDS011;5802;52.832;4.758;2022-09-09T01:11:27;2.15;;;1.17;;
11490;SDS011;5802;52.832;4.758;2022-09-09T01:14:05;4.15;;;1.23;;
11490;SDS011;5802;52.832;4.758;2022-09-09T01:16:39;2.22;;;1.23;;
11490;SDS011;5802;52.832;4.758;2022-09-09T01:19:07;2.30;;;1.20;;
11490;SDS011;5802;52.832;4.758;2022-09-09T01:21:43;2.58;;;1.02;;
11490;SDS011;5802;52.832;4.758;2022-09-09T01:24:22;1.70;;;1.10;;
11490;SDS011;5802;52.832;4.758;2022-09-09T01:26:58;2.45;;;1.40;;
11490;SDS011;5802;52.832;4.758;2022-09-09T01:29:26;3.47;;;1.10;;
11490;SDS011;5802;52.832;4.758;2022-09-09T01:31:55;1.70;;;1.08;;
11490;SDS011;5802;52.832;4.758;2022-09-09T01:34:23;2.25;;;1.10;;
11490;SDS011;5802;52.832;4.758;2022-09-09T01:36:53;2.15;;;1.27;;
11490;SDS011;5802;52.832;4.758;2022-09-09T01:39:23;2.45;;;1.25;;
11490;SDS011;5802;52.832;4.758;2022-09-09T01:41:51;2.50;;;1.38;;
11490;SDS011;5802;52.832;4.758;2022-09-09T01:44:19;2.95;;;1.20;;
11490;SDS011;5802;52.832;4.758;2022-09-09T01:46:46;2.67;;;1.25;;
11490;SDS011;5802;52.832;4.758;2022-09-09T01:49:13;2.10;;;1.10;;
11490;SDS011;5802;52.832;4.758;2022-09-09T01:51:40;1.98;;;1.10;;
11490;SDS011;5802;52.832;4.758;2022-09-09T01:54:09;2.17;;;1.02;;
11490;SDS011;5802;52.832;4.758;2022-09-09T01:56:40;1.35;;;1.00;;
11490;SDS011;5802;52.832;4.758;2022-09-09T01:59:21;1.65;;;1.10;;
11490;SDS011;5802;52.832;4.758;2022-09-09T02:02:06;3.25;;;1.10;;
11490;SDS011;5802;52.832;4.758;2022-09-09T02:04:38;2.00;;;0.93;;
11490;SDS011;5802;52.832;4.758;2022-09-09T02:07:10;2.92;;;1.23;;
11490;SDS011;5802;52.832;4.758;2022-09-09T02:09:57;3.10;;;1.10;;
11490;SDS011;5802;52.832;4.758;2022-09-09T02:12:27;2.63;;;1.20;;
11490;SDS011;5802;52.832;4.758;2022-09-09T02:14:58;2.95;;;1.10;;
11490;SDS011;5802;52.832;4.758;2022-09-09T02:17:30;1.88;;;1.15;;
11490;SDS011;5802;52.832;4.758;2022-09-09T02:20:02;2.47;;;1.08;;
11490;SDS011;5802;52.832;4.758;2022-09-09T02:22:32;3.15;;;1.13;;
11490;SDS011;5802;52.832;4.758;2022-09-09T02:25:01;1.88;;;1.20;;
11490;SDS011;5802;52.832;4.758;2022-09-09T02:27:30;2.03;;;0.75;;
11490;SDS011;5802;52.832;4.758;2022-09-09T02:29:59;2.60;;;0.95;;
11490;SDS011;5802;52.832;4.758;2022-09-09T02:32:27;1.73;;;1.10;;
11490;SDS011;5802;52.832;4.758;2022-09-09T02:34:57;1.92;;;1.08;;
11490;SDS011;5802;52.832;4.758;2022-09-09T02:37:29;1.48;;;1.10;;
11490;SDS011;5802;52.832;4.758;2022-09-09T02:40:00;2.60;;;1.10;;
11490;SDS011;5802;52.832;4.758;2022-09-09T02:42:27;1.85;;;0.98;;
11490;SDS011;5802;52.832;4.758;2022-09-09T02:44:54;1.30;;;1.00;;
11490;SDS011;5802;52.832;4.758;2022-09-09T02:47:24;1.50;;;0.95;;
11490;SDS011;5802;52.832;4.758;2022-09-09T02:50:02;1.35;;;0.88;;
11490;SDS011;5802;52.832;4.758;2022-09-09T02:52:38;1.38;;;0.90;;
11490;SDS011;5802;52.832;4.758;2022-09-09T02:55:16;2.22;;;1.25;;
11490;SDS011;5802;52.832;4.758;2022-09-09T02:57:47;1.58;;;1.00;;
11490;SDS011;5802;52.832;4.758;2022-09-09T03:00:15;4.20;;;0.90;;
11490;SDS011;5802;52.832;4.758;2022-09-09T03:02:50;2.20;;;1.10;;
11490;SDS011;5802;52.832;4.758;2022-09-09T03:05:18;2.88;;;1.08;;
11490;SDS011;5802;52.832;4.758;2022-09-09T03:07:45;1.25;;;1.00;;
11490;SDS011;5802;52.832;4.758;2022-09-09T03:10:11;1.25;;;0.85;;
11490;SDS011;5802;52.832;4.758;2022-09-09T03:12:38;0.80;;;0.80;;
11490;SDS011;5802;52.832;4.758;2022-09-09T03:15:05;2.25;;;0.95;;
11490;SDS011;5802;52.832;4.758;2022-09-09T03:17:33;1.83;;;0.85;;
11490;SDS011;5802;52.832;4.758;2022-09-09T03:20:01;3.40;;;0.80;;
11490;SDS011;5802;52.832;4.758;2022-09-09T03:22:28;1.25;;;0.95;;
11490;SDS011;5802;52.832;4.758;2022-09-09T03:24:55;1.90;;;0.90;;
11490;SDS011;5802;52.832;4.758;2022-09-09T03:27:22;1.00;;;0.80;;
11490;SDS011;5802;52.832;4.758;2022-09-09T03:29:48;1.23;;;0.80;;
11490;SDS011;5802;52.832;4.758;2022-09-09T03:32:16;1.15;;;0.82;;
11490;SDS011;5802;52.832;4.758;2022-09-09T03:34:43;1.17;;;0.93;;
11490;SDS011;5802;52.832;4.758;2022-09-09T03:37:19;1.48;;;0.82;;
11490;SDS011;5802;52.832;4.758;2022-09-09T03:39:47;1.50;;;0.80;;
11490;SDS011;5802;52.832;4.758;2022-09-09T03:42:14;2.20;;;1.00;;
11490;SDS011;5802;52.832;4.758;2022-09-09T03:44:43;1.38;;;0.90;;
11490;SDS011;5802;52.832;4.758;2022-09-09T03:47:11;2.30;;;1.08;;
11490;SDS011;5802;52.832;4.758;2022-09-09T03:49:38;1.33;;;0.73;;
11490;SDS011;5802;52.832;4.758;2022-09-09T03:52:04;1.48;;;0.90;;
11490;SDS011;5802;52.832;4.758;2022-09-09T03:54:32;1.20;;;0.90;;
11490;SDS011;5802;52.832;4.758;2022-09-09T03:57:00;1.70;;;0.80;;
11490;SDS011;5802;52.832;4.758;2022-09-09T03:59:26;1.38;;;1.00;;
11490;SDS011;5802;52.832;4.758;2022-09-09T04:01:53;1.83;;;1.00;;
11490;SDS011;5802;52.832;4.758;2022-09-09T04:04:22;1.00;;;0.73;;
11490;SDS011;5802;52.832;4.758;2022-09-09T04:06:48;2.15;;;0.98;;
11490;SDS011;5802;52.832;4.758;2022-09-09T04:09:15;0.90;;;0.80;;
11490;SDS011;5802;52.832;4.758;2022-09-09T04:11:43;1.85;;;1.20;;
11490;SDS011;5802;52.832;4.758;2022-09-09T04:14:11;1.63;;;1.08;;
11490;SDS011;5802;52.832;4.758;2022-09-09T04:16:37;3.22;;;1.17;;
11490;SDS011;5802;52.832;4.758;2022-09-09T04:19:08;2.10;;;1.15;;
11490;SDS011;5802;52.832;4.758;2022-09-09T04:21:37;1.75;;;1.10;;
11490;SDS011;5802;52.832;4.758;2022-09-09T04:24:05;2.08;;;1.00;;
11490;SDS011;5802;52.832;4.758;2022-09-09T04:26:32;2.80;;;1.42;;
11490;SDS011;5802;52.832;4.758;2022-09-09T04:29:01;1.67;;;1.27;;
11490;SDS011;5802;52.832;4.758;2022-09-09T04:31:28;1.27;;;0.93;;
11490;SDS011;5802;52.832;4.758;2022-09-09T04:33:55;1.55;;;1.10;;
11490;SDS011;5802;52.832;4.758;2022-09-09T04:36:22;2.63;;;1.00;;
11490;SDS011;5802;52.832;4.758;2022-09-09T04:38:48;2.05;;;1.23;;
11490;SDS011;5802;52.832;4.758;2022-09-09T04:41:15;1.23;;;1.00;;
11490;SDS011;5802;52.832;4.758;2022-09-09T04:43:42;1.15;;;0.90;;
11490;SDS011;5802;52.832;4.758;2022-09-09T04:46:10;4.22;;;1.20;;
11490;SDS011;5802;52.832;4.758;2022-09-09T04:48:37;1.25;;;0.90;;
11490;SDS011;5802;52.832;4.758;2022-09-09T04:51:04;1.58;;;1.08;;
11490;SDS011;5802;52.832;4.758;2022-09-09T04:53:33;1.63;;;1.27;;
11490;SDS011;5802;52.832;4.758;2022-09-09T04:56:03;3.28;;;1.05;;
11490;SDS011;5802;52.832;4.758;2022-09-09T04:58:31;1.10;;;0.98;;
11490;SDS011;5802;52.832;4.758;2022-09-09T05:01:05;1.25;;;1.15;;
11490;SDS011;5802;52.832;4.758;2022-09-09T05:03:34;2.88;;;0.90;;
11490;SDS011;5802;52.832;4.758;2022-09-09T05:06:03;1.25;;;0.98;;
11490;SDS011;5802;52.832;4.758;2022-09-09T05:08:32;2.08;;;1.20;;
11490;SDS011;5802;52.832;4.758;2022-09-09T05:10:58;1.83;;;1.00;;
11490;SDS011;5802;52.832;4.758;2022-09-09T05:13:25;1.55;;;1.05;;
11490;SDS011;5802;52.832;4.758;2022-09-09T05:15:52;1.67;;;1.17;;
11490;SDS011;5802;52.832;4.758;2022-09-09T05:18:19;1.67;;;1.05;;
11490;SDS011;5802;52.832;4.758;2022-09-09T05:20:48;2.03;;;1.00;;
11490;SDS011;5802;52.832;4.758;2022-09-09T05:23:15;1.50;;;1.02;;
11490;SDS011;5802;52.832;4.758;2022-09-09T05:25:42;2.20;;;0.95;;
11490;SDS011;5802;52.832;4.758;2022-09-09T05:28:10;2.40;;;0.90;;
11490;SDS011;5802;52.832;4.758;2022-09-09T05:30:37;1.40;;;1.00;;
11490;SDS011;5802;52.832;4.758;2022-09-09T05:33:03;1.30;;;1.00;;
11490;SDS011;5802;52.832;4.758;2022-09-09T05:35:31;1.48;;;0.98;;
11490;SDS011;5802;52.832;4.758;2022-09-09T05:38:00;1.23;;;1.02;;
11490;SDS011;5802;52.832;4.758;2022-09-09T05:40:27;1.00;;;0.90;;
11490;SDS011;5802;52.832;4.758;2022-09-09T05:42:55;2.15;;;1.20;;
11490;SDS011;5802;52.832;4.758;2022-09-09T05:45:25;1.08;;;0.88;;
11490;SDS011;5802;52.832;4.758;2022-09-09T05:47:52;1.80;;;1.10;;
11490;SDS011;5802;52.832;4.758;2022-09-09T05:50:20;1.33;;;0.90;;
11490;SDS011;5802;52.832;4.758;2022-09-09T05:52:47;3.33;;;1.20;;
11490;SDS011;5802;52.832;4.758;2022-09-09T05:55:16;1.58;;;1.00;;
11490;SDS011;5802;52.832;4.758;2022-09-09T05:57:47;3.28;;;0.93;;
11490;SDS011;5802;52.832;4.758;2022-09-09T06:00:17;2.65;;;1.00;;
11490;SDS011;5802;52.832;4.758;2022-09-09T06:02:44;1.20;;;1.10;;
11490;SDS011;5802;52.832;4.758;2022-09-09T06:05:17;1.40;;;0.93;;
11490;SDS011;5802;52.832;4.758;2022-09-09T06:07:44;1.52;;;1.08;;
11490;SDS011;5802;52.832;4.758;2022-09-09T06:10:10;1.45;;;1.00;;
11490;SDS011;5802;52.832;4.758;2022-09-09T06:12:39;2.72;;;1.67;;
11490;SDS011;5802;52.832;4.758;2022-09-09T06:15:06;3.20;;;1.90;;
11490;SDS011;5802;52.832;4.758;2022-09-09T06:17:34;3.60;;;1.75;;
11490;SDS011;5802;52.832;4.758;2022-09-09T06:20:01;2.33;;;1.65;;
11490;SDS011;5802;52.832;4.758;2022-09-09T06:22:28;3.28;;;1.92;;
11490;SDS011;5802;52.832;4.758;2022-09-09T06:24:55;3.20;;;1.63;;
11490;SDS011;5802;52.832;4.758;2022-09-09T06:27:22;7.15;;;2.10;;
11490;SDS011;5802;52.832;4.758;2022-09-09T06:29:50;2.40;;;1.60;;
11490;SDS011;5802;52.832;4.758;2022-09-09T06:32:16;3.47;;;1.52;;
11490;SDS011;5802;52.832;4.758;2022-09-09T06:34:43;4.45;;;1.70;;
11490;SDS011;5802;52.832;4.758;2022-09-09T06:37:10;3.05;;;1.95;;
11490;SDS011;5802;52.832;4.758;2022-09-09T06:39:37;2.35;;;1.45;;
11490;SDS011;5802;52.832;4.758;2022-09-09T06:42:04;4.40;;;2.00;;
11490;SDS011;5802;52.832;4.758;2022-09-09T06:44:31;4.72;;;1.98;;
11490;SDS011;5802;52.832;4.758;2022-09-09T06:47:00;3.95;;;1.60;;
11490;SDS011;5802;52.832;4.758;2022-09-09T06:49:26;3.50;;;1.77;;
11490;SDS011;5802;52.832;4.758;2022-09-09T06:51:54;2.95;;;1.20;;
11490;SDS011;5802;52.832;4.758;2022-09-09T06:54:20;3.40;;;1.63;;
11490;SDS011;5802;52.832;4.758;2022-09-09T06:56:48;3.15;;;0.88;;
11490;SDS011;5802;52.832;4.758;2022-09-09T06:59:15;2.40;;;1.20;;
11490;SDS011;5802;52.832;4.758;2022-09-09T07:01:43;2.72;;;1.30;;
11490;SDS011;5802;52.832;4.758;2022-09-09T07:04:11;2.00;;;1.00;;
11490;SDS011;5802;52.832;4.758;2022-09-09T07:06:39;5.18;;;1.38;;
11490;SDS011;5802;52.832;4.758;2022-09-09T07:09:08;2.13;;;1.08;;
11490;SDS011;5802;52.832;4.758;2022-09-09T07:11:37;2.85;;;1.10;;
11490;SDS011;5802;52.832;4.758;2022-09-09T07:14:04;1.63;;;0.90;;
11490;SDS011;5802;52.832;4.758;2022-09-09T07:16:32;1.85;;;1.00;;
11490;SDS011;5802;52.832;4.758;2022-09-09T07:18:58;3.15;;;0.90;;
11490;SDS011;5802;52.832;4.758;2022-09-09T07:21:27;1.75;;;0.98;;
11490;SDS011;5802;52.832;4.758;2022-09-09T07:23:56;1.98;;;1.08;;
11490;SDS011;5802;52.832;4.758;2022-09-09T07:26:24;2.17;;;1.05;;
11490;SDS011;5802;52.832;4.758;2022-09-09T07:28:51;2.30;;;1.00;;
11490;SDS011;5802;52.832;4.758;2022-09-09T07:31:21;3.17;;;1.20;;
11490;SDS011;5802;52.832;4.758;2022-09-09T07:33:49;1.90;;;1.08;;
11490;SDS011;5802;52.832;4.758;2022-09-09T07:36:16;1.88;;;0.90;;
11490;SDS011;5802;52.832;4.758;2022-09-09T07:38:48;2.97;;;0.95;;
11490;SDS011;5802;52.832;4.758;2022-09-09T07:41:17;3.08;;;0.90;;
11490;SDS011;5802;52.832;4.758;2022-09-09T07:43:46;1.85;;;1.05;;
11490;SDS011;5802;52.832;4.758;2022-09-09T07:46:15;1.65;;;1.10;;
11490;SDS011;5802;52.832;4.758;2022-09-09T07:48:44;2.55;;;1.20;;
11490;SDS011;5802;52.832;4.758;2022-09-09T07:51:16;1.48;;;1.00;;
11490;SDS011;5802;52.832;4.758;2022-09-09T07:53:48;1.70;;;0.80;;
11490;SDS011;5802;52.832;4.758;2022-09-09T07:56:18;2.70;;;1.27;;
11490;SDS011;5802;52.832;4.758;2022-09-09T07:58:48;1.38;;;1.10;;
11490;SDS011;5802;52.832;4.758;2022-09-09T08:01:17;1.45;;;0.93;;
11490;SDS011;5802;52.832;4.758;2022-09-09T08:03:45;3.47;;;1.00;;
11490;SDS011;5802;52.832;4.758;2022-09-09T08:06:13;1.95;;;1.20;;
11490;SDS011;5802;52.832;4.758;2022-09-09T08:08:40;1.92;;;1.10;;
11490;SDS011;5802;52.832;4.758;2022-09-09T08:11:10;2.58;;;1.35;;
11490;SDS011;5802;52.832;4.758;2022-09-09T08:13:39;3.55;;;1.50;;
11490;SDS011;5802;52.832;4.758;2022-09-09T08:16:08;2.83;;;1.15;;
11490;SDS011;5802;52.832;4.758;2022-09-09T08:18:37;2.28;;;1.60;;
11490;SDS011;5802;52.832;4.758;2022-09-09T08:21:07;3.95;;;1.83;;
11490;SDS011;5802;52.832;4.758;2022-09-09T08:23:36;4.47;;;2.13;;
11490;SDS011;5802;52.832;4.758;2022-09-09T08:26:07;3.42;;;1.83;;
11490;SDS011;5802;52.832;4.758;2022-09-09T08:28:38;3.28;;;2.10;;
11490;SDS011;5802;52.832;4.758;2022-09-09T08:31:07;4.47;;;2.30;;
11490;SDS011;5802;52.832;4.758;2022-09-09T08:33:35;4.75;;;2.60;;
11490;SDS011;5802;52.832;4.758;2022-09-09T08:36:03;3.95;;;2.42;;
11490;SDS011;5802;52.832;4.758;2022-09-09T08:38:31;3.78;;;2.70;;
11490;SDS011;5802;52.832;4.758;2022-09-09T08:41:01;4.72;;;2.90;;
11490;SDS011;5802;52.832;4.758;2022-09-09T08:43:38;4.40;;;2.90;;
11490;SDS011;5802;52.832;4.758;2022-09-09T08:46:09;7.18;;;3.40;;
11490;SDS011;5802;52.832;4.758;2022-09-09T08:48:44;6.45;;;3.47;;
11490;SDS011;5802;52.832;4.758;2022-09-09T08:51:18;7.30;;;3.33;;
11490;SDS011;5802;52.832;4.758;2022-09-09T08:53:46;4.95;;;3.55;;
11490;SDS011;5802;52.832;4.758;2022-09-09T08:56:16;7.63;;;3.55;;
11490;SDS011;5802;52.832;4.758;2022-09-09T08:58:49;5.30;;;3.10;;
11490;SDS011;5802;52.832;4.758;2022-09-09T09:01:22;7.00;;;3.50;;
11490;SDS011;5802;52.832;4.758;2022-09-09T09:04:07;7.30;;;3.38;;
11490;SDS011;5802;52.832;4.758;2022-09-09T09:06:44;6.50;;;3.33;;
11490;SDS011;5802;52.832;4.758;2022-09-09T09:09:20;7.85;;;3.00;;
11490;SDS011;5802;52.832;4.758;2022-09-09T09:11:58;6.45;;;3.42;;
11490;SDS011;5802;52.832;4.758;2022-09-09T09:14:29;10.25;;;3.70;;
11490;SDS011;5802;52.832;4.758;2022-09-09T09:16:59;5.78;;;3.33;;
11490;SDS011;5802;52.832;4.758;2022-09-09T09:19:28;5.18;;;3.17;;
11490;SDS011;5802;52.832;4.758;2022-09-09T09:21:59;8.10;;;3.10;;
11490;SDS011;5802;52.832;4.758;2022-09-09T09:24:34;4.93;;;2.90;;
11490;SDS011;5802;52.832;4.758;2022-09-09T09:27:12;5.00;;;2.90;;
11490;SDS011;5802;52.832;4.758;2022-09-09T09:29:41;5.93;;;3.10;;
11490;SDS011;5802;52.832;4.758;2022-09-09T09:32:10;6.80;;;3.20;;
11490;SDS011;5802;52.832;4.758;2022-09-09T09:34:42;4.10;;;2.55;;
11490;SDS011;5802;52.832;4.758;2022-09-09T09:37:15;6.13;;;2.95;;
11490;SDS011;5802;52.832;4.758;2022-09-09T09:39:47;7.10;;;3.05;;
11490;SDS011;5802;52.832;4.758;2022-09-09T09:42:15;6.45;;;2.50;;
11490;SDS011;5802;52.832;4.758;2022-09-09T09:44:44;4.53;;;2.80;;
11490;SDS011;5802;52.832;4.758;2022-09-09T09:47:12;7.88;;;3.15;;
11490;SDS011;5802;52.832;4.758;2022-09-09T09:49:50;4.88;;;3.05;;
11490;SDS011;5802;52.832;4.758;2022-09-09T09:52:19;7.55;;;2.78;;
11490;SDS011;5802;52.832;4.758;2022-09-09T09:54:49;5.85;;;3.00;;
11490;SDS011;5802;52.832;4.758;2022-09-09T09:57:17;7.95;;;2.85;;
11490;SDS011;5802;52.832;4.758;2022-09-09T09:59:46;10.60;;;3.00;;
11490;SDS011;5802;52.832;4.758;2022-09-09T10:02:14;9.93;;;3.28;;
11490;SDS011;5802;52.832;4.758;2022-09-09T10:04:43;5.25;;;2.95;;
11490;SDS011;5802;52.832;4.758;2022-09-09T10:07:11;4.22;;;2.83;;
11490;SDS011;5802;52.832;4.758;2022-09-09T10:09:38;8.32;;;3.85;;
11490;SDS011;5802;52.832;4.758;2022-09-09T10:12:07;10.70;;;7.95;;
11490;SDS011;5802;52.832;4.758;2022-09-09T10:14:43;12.93;;;9.88;;
11490;SDS011;5802;52.832;4.758;2022-09-09T10:17:18;18.88;;;9.32;;
11490;SDS011;5802;52.832;4.758;2022-09-09T10:19:54;14.23;;;8.93;;
11490;SDS011;5802;52.832;4.758;2022-09-09T10:22:37;13.82;;;7.60;;
11490;SDS011;5802;52.832;4.758;2022-09-09T10:25:26;8.38;;;5.93;;
11490;SDS011;5802;52.832;4.758;2022-09-09T10:28:11;9.68;;;5.80;;
11490;SDS011;5802;52.832;4.758;2022-09-09T10:30:50;11.35;;;5.45;;
11490;SDS011;5802;52.832;4.758;2022-09-09T10:33:25;9.43;;;4.43;;
11490;SDS011;5802;52.832;4.758;2022-09-09T10:35:58;11.57;;;5.03;;
11490;SDS011;5802;52.832;4.758;2022-09-09T10:38:32;7.55;;;4.10;;
11490;SDS011;5802;52.832;4.758;2022-09-09T10:41:13;5.93;;;3.70;;
11490;SDS011;5802;52.832;4.758;2022-09-09T10:44:00;3.90;;;3.28;;
11490;SDS011;5802;52.832;4.758;2022-09-09T10:46:48;6.20;;;3.55;;
11490;SDS011;5802;52.832;4.758;2022-09-09T10:49:27;9.07;;;3.45;;
11490;SDS011;5802;52.832;4.758;2022-09-09T10:52:09;3.53;;;2.67;;
11490;SDS011;5802;52.832;4.758;2022-09-09T10:54:50;4.35;;;2.90;;
11490;SDS011;5802;52.832;4.758;2022-09-09T10:57:25;5.85;;;2.83;;
11490;SDS011;5802;52.832;4.758;2022-09-09T10:59:57;7.70;;;2.78;;
11490;SDS011;5802;52.832;4.758;2022-09-09T11:02:30;6.43;;;3.08;;
11490;SDS011;5802;52.832;4.758;2022-09-09T11:04:59;6.38;;;2.83;;
11490;SDS011;5802;52.832;4.758;2022-09-09T11:07:30;4.38;;;2.85;;
11490;SDS011;5802;52.832;4.758;2022-09-09T11:10:05;7.38;;;3.30;;
11490;SDS011;5802;52.832;4.758;2022-09-09T11:12:45;5.97;;;2.55;;
11490;SDS011;5802;52.832;4.758;2022-09-09T11:15:16;4.60;;;2.78;;
11490;SDS011;5802;52.832;4.758;2022-09-09T11:17:48;7.00;;;2.55;;
11490;SDS011;5802;52.832;4.758;2022-09-09T11:20:19;5.40;;;2.33;;
11490;SDS011;5802;52.832;4.758;2022-09-09T11:22:47;5.57;;;2.17;;
11490;SDS011;5802;52.832;4.758;2022-09-09T11:25:20;8.27;;;3.45;;
11490;SDS011;5802;52.832;4.758;2022-09-09T11:28:03;8.77;;;3.42;;
11490;SDS011;5802;52.832;4.758;2022-09-09T11:30:43;10.38;;;3.55;;
11490;SDS011;5802;52.832;4.758;2022-09-09T11:33:28;11.68;;;3.58;;
11490;SDS011;5802;52.832;4.758;2022-09-09T11:36:26;6.95;;;2.83;;
11490;SDS011;5802;52.832;4.758;2022-09-09T11:39:07;8.10;;;3.30;;
11490;SDS011;5802;52.832;4.758;2022-09-09T11:41:51;5.82;;;3.25;;
11490;SDS011;5802;52.832;4.758;2022-09-09T11:44:19;8.55;;;2.92;;
11490;SDS011;5802;52.832;4.758;2022-09-09T11:46:52;4.20;;;2.50;;
11490;SDS011;5802;52.832;4.758;2022-09-09T11:49:27;6.18;;;2.40;;
11490;SDS011;5802;52.832;4.758;2022-09-09T11:51:56;4.28;;;2.53;;
11490;SDS011;5802;52.832;4.758;2022-09-09T11:54:27;5.40;;;2.30;;
11490;SDS011;5802;52.832;4.758;2022-09-09T11:56:56;6.80;;;2.35;;
11490;SDS011;5802;52.832;4.758;2022-09-09T11:59:23;6.88;;;2.22;;
11490;SDS011;5802;52.832;4.758;2022-09-09T12:01:54;9.20;;;2.45;;
11490;SDS011;5802;52.832;4.758;2022-09-09T12:04:31;5.63;;;2.30;;
11490;SDS011;5802;52.832;4.758;2022-09-09T12:07:03;3.63;;;2.00;;
11490;SDS011;5802;52.832;4.758;2022-09-09T12:12:21;3.90;;;2.35;;
11490;SDS011;5802;52.832;4.758;2022-09-09T12:14:56;4.80;;;2.13;;
11490;SDS011;5802;52.832;4.758;2022-09-09T12:17:41;6.88;;;2.60;;
11490;SDS011;5802;52.832;4.758;2022-09-09T12:20:12;4.18;;;1.95;;
11490;SDS011;5802;52.832;4.758;2022-09-09T12:22:44;4.57;;;2.00;;
11490;SDS011;5802;52.832;4.758;2022-09-09T12:25:29;11.05;;;2.65;;
11490;SDS011;5802;52.832;4.758;2022-09-09T12:28:03;4.05;;;2.10;;
11490;SDS011;5802;52.832;4.758;2022-09-09T12:30:37;4.65;;;2.15;;
11490;SDS011;5802;52.832;4.758;2022-09-09T12:33:16;4.07;;;2.08;;
11490;SDS011;5802;52.832;4.758;2022-09-09T12:35:45;3.63;;;2.00;;
11490;SDS011;5802;52.832;4.758;2022-09-09T12:38:27;2.85;;;1.58;;
11490;SDS011;5802;52.832;4.758;2022-09-09T12:40:58;3.97;;;1.80;;
11490;SDS011;5802;52.832;4.758;2022-09-09T12:43:26;5.38;;;2.40;;
11490;SDS011;5802;52.832;4.758;2022-09-09T12:45:54;2.60;;;1.83;;
11490;SDS011;5802;52.832;4.758;2022-09-09T12:48:27;3.38;;;1.92;;
11490;SDS011;5802;52.832;4.758;2022-09-09T12:50:59;3.33;;;2.00;;
11490;SDS011;5802;52.832;4.758;2022-09-09T12:53:27;4.43;;;1.85;;
11490;SDS011;5802;52.832;4.758;2022-09-09T12:55:58;3.38;;;1.70;;
11490;SDS011;5802;52.832;4.758;2022-09-09T12:58:27;2.85;;;1.90;;
11490;SDS011;5802;52.832;4.758;2022-09-09T13:00:58;2.17;;;1.92;;
11490;SDS011;5802;52.832;4.758;2022-09-09T13:03:26;3.33;;;1.60;;
11490;SDS011;5802;52.832;4.758;2022-09-09T13:05:53;3.97;;;1.60;;
11490;SDS011;5802;52.832;4.758;2022-09-09T13:08:26;4.03;;;2.00;;
11490;SDS011;5802;52.832;4.758;2022-09-09T13:10:54;3.60;;;1.88;;
11490;SDS011;5802;52.832;4.758;2022-09-09T13:13:25;3.90;;;1.70;;
11490;SDS011;5802;52.832;4.758;2022-09-09T13:15:55;4.95;;;1.77;;
11490;SDS011;5802;52.832;4.758;2022-09-09T13:18:24;7.88;;;1.90;;
11490;SDS011;5802;52.832;4.758;2022-09-09T13:20:53;4.63;;;1.70;;
11490;SDS011;5802;52.832;4.758;2022-09-09T13:23:23;3.67;;;1.60;;
11490;SDS011;5802;52.832;4.758;2022-09-09T13:25:56;3.65;;;1.58;;
11490;SDS011;5802;52.832;4.758;2022-09-09T13:28:25;4.20;;;1.77;;
11490;SDS011;5802;52.832;4.758;2022-09-09T13:30:58;2.03;;;1.35;;
11490;SDS011;5802;52.832;4.758;2022-09-09T13:33:29;2.58;;;1.50;;
11490;SDS011;5802;52.832;4.758;2022-09-09T13:35:58;2.22;;;1.30;;
11490;SDS011;5802;52.832;4.758;2022-09-09T13:38:30;2.75;;;1.55;;
11490;SDS011;5802;52.832;4.758;2022-09-09T13:41:00;3.92;;;1.60;;
11490;SDS011;5802;52.832;4.758;2022-09-09T13:43:29;2.20;;;1.50;;
11490;SDS011;5802;52.832;4.758;2022-09-09T13:45:59;2.55;;;1.35;;
11490;SDS011;5802;52.832;4.758;2022-09-09T13:48:28;2.00;;;1.45;;
11490;SDS011;5802;52.832;4.758;2022-09-09T13:50:58;1.80;;;1.42;;
11490;SDS011;5802;52.832;4.758;2022-09-09T13:53:27;4.38;;;1.50;;
11490;SDS011;5802;52.832;4.758;2022-09-09T13:55:55;3.42;;;1.60;;
11490;SDS011;5802;52.832;4.758;2022-09-09T13:58:22;3.65;;;1.60;;
11490;SDS011;5802;52.832;4.758;2022-09-09T14:00:50;2.83;;;1.52;;
11490;SDS011;5802;52.832;4.758;2022-09-09T14:03:17;2.05;;;1.40;;
11490;SDS011;5802;52.832;4.758;2022-09-09T14:05:44;2.78;;;1.50;;
11490;SDS011;5802;52.832;4.758;2022-09-09T14:08:15;1.58;;;1.30;;
11490;SDS011;5802;52.832;4.758;2022-09-09T14:10:46;2.72;;;1.50;;
11490;SDS011;5802;52.832;4.758;2022-09-09T14:13:14;3.15;;;1.40;;
11490;SDS011;5802;52.832;4.758;2022-09-09T14:15:41;3.03;;;1.40;;
11490;SDS011;5802;52.832;4.758;2022-09-09T14:18:09;1.92;;;1.20;;
11490;SDS011;5802;52.832;4.758;2022-09-09T14:20:38;2.30;;;1.40;;
11490;SDS011;5802;52.832;4.758;2022-09-09T14:23:04;2.58;;;1.40;;
11490;SDS011;5802;52.832;4.758;2022-09-09T14:25:31;1.92;;;1.27;;
11490;SDS011;5802;52.832;4.758;2022-09-09T14:27:58;2.25;;;1.23;;
11490;SDS011;5802;52.832;4.758;2022-09-09T14:30:26;1.85;;;1.30;;
11490;SDS011;5802;52.832;4.758;2022-09-09T14:32:53;2.42;;;1.30;;
11490;SDS011;5802;52.832;4.758;2022-09-09T14:35:20;1.90;;;1.35;;
11490;SDS011;5802;52.832;4.758;2022-09-09T14:37:47;1.95;;;1.50;;
11490;SDS011;5802;52.832;4.758;2022-09-09T14:40:14;1.85;;;1.25;;
11490;SDS011;5802;52.832;4.758;2022-09-09T14:42:41;2.10;;;1.40;;
11490;SDS011;5802;52.832;4.758;2022-09-09T14:45:08;3.63;;;1.42;;
11490;SDS011;5802;52.832;4.758;2022-09-09T14:47:37;2.35;;;1.50;;
11490;SDS011;5802;52.832;4.758;2022-09-09T14:50:04;4.05;;;1.50;;
11490;SDS011;5802;52.832;4.758;2022-09-09T14:52:33;2.50;;;1.23;;
11490;SDS011;5802;52.832;4.758;2022-09-09T14:55:08;1.75;;;1.30;;
11490;SDS011;5802;52.832;4.758;2022-09-09T14:57:34;2.00;;;1.35;;
11490;SDS011;5802;52.832;4.758;2022-09-09T15:00:02;1.67;;;1.10;;
11490;SDS011;5802;52.832;4.758;2022-09-09T15:02:30;3.25;;;1.38;;
11490;SDS011;5802;52.832;4.758;2022-09-09T15:04:59;2.13;;;1.30;;
11490;SDS011;5802;52.832;4.758;2022-09-09T15:07:26;2.45;;;1.45;;
11490;SDS011;5802;52.832;4.758;2022-09-09T15:09:53;2.92;;;1.20;;
11490;SDS011;5802;52.832;4.758;2022-09-09T15:12:20;1.75;;;1.30;;
11490;SDS011;5802;52.832;4.758;2022-09-09T15:14:47;2.55;;;1.25;;
11490;SDS011;5802;52.832;4.758;2022-09-09T15:17:15;2.25;;;1.42;;
11490;SDS011;5802;52.832;4.758;2022-09-09T15:19:42;1.75;;;1.27;;
11490;SDS011;5802;52.832;4.758;2022-09-09T15:22:10;1.42;;;1.20;;
11490;SDS011;5802;52.832;4.758;2022-09-09T15:24:36;2.40;;;1.40;;
11490;SDS011;5802;52.832;4.758;2022-09-09T15:27:03;1.55;;;1.25;;